Time;durP1;ratioP1;P1;durP2;ratioP2;P2;SDS_P1;SDS_P2;PMS_P1;PMS_P2;Temp;Humidity;BMP_temperature;BMP_pressure;BME280_temperature;BME280_humidity;BME280_pressure;Samples;Min_cycle;Max_cycle;Signal;HPM_P1;HPM_P2
2023/02/20 00:01:27;;;;;;;16.15;8.25;;;;;;;;;;5055258;28;20310;-77
2023/02/20 00:03:54;;;;;;;16.63;9.70;;;;;;;;;;5055897;28;20569;-77
2023/02/20 00:06:20;;;;;;;15.00;10.00;;;;;;;;;;5055302;28;20518;-77
2023/02/20 00:08:46;;;;;;;15.35;10.10;;;;;;;;;;5055977;28;20180;-76
2023/02/20 00:11:12;;;;;;;16.00;9.30;;;;;;;;;;5054712;28;20181;-77
2023/02/20 00:13:37;;;;;;;16.02;9.18;;;;;;;;;;5054981;28;20463;-76
2023/02/20 00:16:04;;;;;;;16.73;9.93;;;;;;;;;;5055627;28;20580;-76
2023/02/20 00:18:30;;;;;;;17.10;9.75;;;;;;;;;;5054821;28;20178;-77
2023/02/20 00:20:55;;;;;;;21.67;8.97;;;;;;;;;;5055608;28;20172;-76
2023/02/20 00:23:21;;;;;;;18.10;10.73;;;;;;;;;;5056115;28;20464;-77
2023/02/20 00:25:47;;;;;;;20.60;10.00;;;;;;;;;;5055993;28;20411;-77
2023/02/20 00:28:13;;;;;;;16.13;9.50;;;;;;;;;;5056712;28;20527;-77
2023/02/20 00:30:39;;;;;;;17.58;9.43;;;;;;;;;;5059018;28;20185;-76
2023/02/20 00:33:05;;;;;;;15.50;9.68;;;;;;;;;;5058898;28;20173;-76
2023/02/20 00:35:31;;;;;;;13.13;8.40;;;;;;;;;;5058822;28;20609;-76
2023/02/20 00:37:57;;;;;;;14.90;9.15;;;;;;;;;;5059345;28;20494;-76
2023/02/20 00:40:24;;;;;;;15.00;10.15;;;;;;;;;;5058816;28;20667;-77
2023/02/20 00:42:50;;;;;;;16.45;9.32;;;;;;;;;;5058785;28;20204;-76
2023/02/20 00:45:17;;;;;;;11.05;8.45;;;;;;;;;;5058822;28;20257;-77
2023/02/20 00:47:43;;;;;;;22.52;10.13;;;;;;;;;;5059379;28;20169;-77
2023/02/20 00:50:09;;;;;;;13.73;8.32;;;;;;;;;;5058612;28;20191;-76
2023/02/20 00:52:38;;;;;;;14.75;9.63;;;;;;;;;;5057326;28;20170;-76
2023/02/20 00:55:04;;;;;;;14.30;9.32;;;;;;;;;;5058474;28;20691;-76
2023/02/20 00:57:30;;;;;;;15.98;9.40;;;;;;;;;;5058779;28;20252;-76
2023/02/20 00:59:56;;;;;;;13.83;8.37;;;;;;;;;;5058561;28;20174;-76
2023/02/20 01:02:22;;;;;;;13.80;9.27;;;;;;;;;;5058816;28;20438;-76
2023/02/20 01:04:48;;;;;;;14.70;10.60;;;;;;;;;;5058074;28;20810;-76
2023/02/20 01:07:14;;;;;;;14.27;9.70;;;;;;;;;;5058443;28;20400;-76
2023/02/20 01:09:40;;;;;;;15.77;9.68;;;;;;;;;;5058145;28;20239;-76
2023/02/20 01:12:06;;;;;;;13.82;9.30;;;;;;;;;;5059150;28;20643;-77
2023/02/20 01:14:32;;;;;;;17.65;10.63;;;;;;;;;;5056477;28;20229;-77
2023/02/20 01:16:58;;;;;;;16.05;9.40;;;;;;;;;;5058399;28;20178;-76
2023/02/20 01:19:24;;;;;;;12.50;8.25;;;;;;;;;;5058159;28;20707;-76
2023/02/20 01:21:50;;;;;;;15.13;10.30;;;;;;;;;;5058861;28;20181;-75
2023/02/20 01:24:17;;;;;;;15.60;10.37;;;;;;;;;;5058997;28;20177;-76
2023/02/20 01:26:44;;;;;;;22.98;11.73;;;;;;;;;;5057849;28;20400;-77
2023/02/20 01:29:10;;;;;;;17.52;11.20;;;;;;;;;;5058219;28;20287;-77
2023/02/20 01:31:36;;;;;;;16.33;10.55;;;;;;;;;;5057829;28;20182;-77
2023/02/20 01:34:02;;;;;;;15.80;9.43;;;;;;;;;;5058629;28;20178;-76
2023/02/20 01:36:28;;;;;;;16.25;9.98;;;;;;;;;;5058123;28;20408;-76
2023/02/20 01:38:54;;;;;;;17.97;10.60;;;;;;;;;;5058808;28;20568;-76
2023/02/20 01:41:21;;;;;;;20.55;11.68;;;;;;;;;;5057253;28;20830;-75
2023/02/20 01:43:47;;;;;;;19.17;10.65;;;;;;;;;;5058326;28;20209;-76
2023/02/20 01:46:28;;;;;;;18.10;10.57;;;;;;;;;;5057985;28;20186;-76
2023/02/20 01:49:05;;;;;;;24.58;10.55;;;;;;;;;;5057718;28;20229;-76
2023/02/20 01:51:33;;;;;;;24.00;11.48;;;;;;;;;;5056765;28;20180;-76
2023/02/20 01:54:00;;;;;;;24.23;12.95;;;;;;;;;;5058159;28;20170;-76
2023/02/20 01:56:26;;;;;;;17.85;10.68;;;;;;;;;;5056832;28;20200;-76
2023/02/20 01:58:53;;;;;;;19.13;12.90;;;;;;;;;;5057664;28;20193;-76
2023/02/20 02:01:19;;;;;;;28.67;12.45;;;;;;;;;;5056935;28;20182;-76
2023/02/20 02:03:46;;;;;;;19.40;11.50;;;;;;;;;;5057214;28;20517;-76
2023/02/20 02:06:14;;;;;;;21.80;12.10;;;;;;;;;;5057919;28;20188;-76
2023/02/20 02:08:41;;;;;;;18.40;10.60;;;;;;;;;;5057165;28;20629;-76
2023/02/20 02:11:11;;;;;;;24.02;11.48;;;;;;;;;;5057683;28;20205;-76
2023/02/20 02:13:38;;;;;;;16.02;11.25;;;;;;;;;;5056835;28;20220;-76
2023/02/20 02:16:16;;;;;;;17.42;10.15;;;;;;;;;;5057215;28;20201;-77
2023/02/20 02:18:45;;;;;;;17.05;10.00;;;;;;;;;;5057915;28;20226;-77
2023/02/20 02:21:11;;;;;;;17.20;9.27;;;;;;;;;;5057816;28;20535;-76
2023/02/20 02:23:56;;;;;;;11.83;8.40;;;;;;;;;;5057569;28;20169;-77
2023/02/20 02:26:40;;;;;;;15.77;9.18;;;;;;;;;;5056982;28;20768;-77
2023/02/20 02:29:15;;;;;;;13.35;8.75;;;;;;;;;;5057110;28;20174;-76
2023/02/20 02:31:54;;;;;;;15.52;9.90;;;;;;;;;;5056945;28;20169;-77
2023/02/20 02:34:27;;;;;;;18.70;9.93;;;;;;;;;;5057360;28;20295;-77
2023/02/20 02:36:53;;;;;;;16.33;9.45;;;;;;;;;;5057872;28;20651;-76
2023/02/20 02:39:27;;;;;;;14.93;9.10;;;;;;;;;;5056392;28;20181;-77
2023/02/20 02:42:07;;;;;;;15.20;9.40;;;;;;;;;;5057294;28;20404;-77
2023/02/20 02:44:36;;;;;;;17.08;10.07;;;;;;;;;;5056371;28;20181;-76
2023/02/20 02:47:05;;;;;;;20.08;10.07;;;;;;;;;;5057210;28;20182;-77
2023/02/20 02:49:37;;;;;;;15.02;9.90;;;;;;;;;;5055597;28;20213;-77
2023/02/20 02:52:04;;;;;;;14.90;9.77;;;;;;;;;;5056944;28;20232;-77
2023/02/20 02:54:30;;;;;;;14.75;8.80;;;;;;;;;;5054896;28;20611;-77
2023/02/20 02:57:14;;;;;;;17.13;10.55;;;;;;;;;;5056272;28;20190;-76
2023/02/20 02:59:41;;;;;;;12.60;8.00;;;;;;;;;;5057134;28;20190;-77
2023/02/20 03:02:10;;;;;;;15.85;9.57;;;;;;;;;;5055413;28;20268;-77
2023/02/20 03:04:37;;;;;;;18.80;9.27;;;;;;;;;;5056018;28;20526;-77
2023/02/20 03:07:14;;;;;;;15.05;9.18;;;;;;;;;;5056488;28;20196;-77
2023/02/20 03:09:50;;;;;;;13.82;9.45;;;;;;;;;;5056055;28;20185;-77
2023/02/20 03:12:16;;;;;;;15.68;8.38;;;;;;;;;;5056531;28;20214;-77
2023/02/20 03:17:34;;;;;;;12.15;8.35;;;;;;;;;;5056370;28;20173;-77
2023/02/20 03:20:05;;;;;;;15.27;8.90;;;;;;;;;;5054634;28;20181;-77
2023/02/20 03:22:36;;;;;;;15.02;8.57;;;;;;;;;;5055000;28;20175;-77
2023/02/20 03:25:05;;;;;;;13.70;8.85;;;;;;;;;;5056888;28;20239;-77
2023/02/20 03:27:37;;;;;;;15.50;8.90;;;;;;;;;;5056049;28;20180;-77
2023/02/20 03:30:06;;;;;;;16.25;8.30;;;;;;;;;;5055112;28;20181;-77
2023/02/20 03:43:34;;;;;;;12.57;8.20;;;;;;;;;;5055562;28;20283;-77
2023/02/20 03:46:02;;;;;;;13.98;7.38;;;;;;;;;;5055933;28;20186;-77
2023/02/20 03:48:42;;;;;;;15.18;7.70;;;;;;;;;;5055499;28;20169;-77
2023/02/20 03:51:08;;;;;;;12.35;7.45;;;;;;;;;;5056038;28;20256;-77
2023/02/20 03:53:34;;;;;;;16.35;7.90;;;;;;;;;;5056011;28;20177;-76
2023/02/20 03:56:02;;;;;;;10.48;7.28;;;;;;;;;;5055639;28;20669;-77
2023/02/20 03:58:29;;;;;;;11.68;7.20;;;;;;;;;;5055342;28;20230;-77
2023/02/20 04:00:58;;;;;;;14.32;7.15;;;;;;;;;;5055399;28;20170;-77
2023/02/20 04:03:26;;;;;;;13.40;7.13;;;;;;;;;;5057327;28;20222;-77
2023/02/20 04:05:53;;;;;;;12.02;7.05;;;;;;;;;;5058486;28;20173;-77
2023/02/20 04:08:27;;;;;;;11.43;7.28;;;;;;;;;;5060387;28;20177;-77
2023/02/20 04:10:52;;;;;;;13.80;7.65;;;;;;;;;;5059508;28;20184;-76
2023/02/20 04:13:19;;;;;;;14.73;8.97;;;;;;;;;;5059561;28;20211;-76
2023/02/20 04:15:46;;;;;;;8.13;6.72;;;;;;;;;;5059704;28;20478;-77
2023/02/20 04:18:17;;;;;;;13.00;7.15;;;;;;;;;;5060274;28;20181;-77
2023/02/20 04:20:43;;;;;;;11.25;5.82;;;;;;;;;;5058869;28;20338;-77
2023/02/20 04:23:17;;;;;;;14.35;7.05;;;;;;;;;;5059516;28;20204;-74
2023/02/20 04:25:49;;;;;;;14.95;7.22;;;;;;;;;;5059382;28;20185;-76
2023/02/20 04:28:15;;;;;;;13.23;6.00;;;;;;;;;;5059367;28;20178;-76
2023/02/20 04:30:42;;;;;;;9.88;6.45;;;;;;;;;;5058353;28;20226;-76
2023/02/20 04:33:10;;;;;;;10.30;6.28;;;;;;;;;;5059386;28;20173;-76
2023/02/20 04:35:36;;;;;;;12.65;6.13;;;;;;;;;;5059443;28;20211;-76
2023/02/20 04:38:02;;;;;;;10.30;6.47;;;;;;;;;;5059357;28;20640;-75
2023/02/20 04:40:28;;;;;;;10.00;6.30;;;;;;;;;;5059326;28;20782;-75
2023/02/20 04:42:54;;;;;;;10.77;5.95;;;;;;;;;;5058761;28;20490;-76
2023/02/20 04:45:20;;;;;;;15.35;5.95;;;;;;;;;;5059478;28;20699;-76
2023/02/20 04:47:46;;;;;;;11.97;6.67;;;;;;;;;;5058562;28;20215;-76
2023/02/20 04:50:31;;;;;;;13.32;6.05;;;;;;;;;;5059321;28;20883;-75
2023/02/20 04:52:58;;;;;;;11.25;6.45;;;;;;;;;;5059415;28;20184;-76
2023/02/20 04:55:24;;;;;;;10.70;5.88;;;;;;;;;;5058954;28;20219;-76
2023/02/20 04:57:50;;;;;;;9.60;5.60;;;;;;;;;;5058699;28;20544;-76
2023/02/20 05:00:17;;;;;;;16.17;6.72;;;;;;;;;;5058790;28;20211;-76
2023/02/20 05:02:43;;;;;;;14.20;6.95;;;;;;;;;;5058252;28;20231;-76
2023/02/20 05:05:30;;;;;;;13.40;7.43;;;;;;;;;;5058826;28;20177;-76
2023/02/20 05:08:00;;;;;;;23.05;7.32;;;;;;;;;;5059016;28;20249;-75
2023/02/20 05:10:27;;;;;;;11.60;5.70;;;;;;;;;;5059256;28;20569;-75
2023/02/20 05:12:54;;;;;;;13.57;7.53;;;;;;;;;;5059060;28;20233;-75
2023/02/20 05:15:20;;;;;;;10.50;6.65;;;;;;;;;;5059168;28;20345;-75
2023/02/20 05:17:46;;;;;;;12.85;7.03;;;;;;;;;;5058400;28;20519;-75
2023/02/20 05:20:13;;;;;;;16.98;6.93;;;;;;;;;;5058435;28;20573;-75
2023/02/20 05:22:39;;;;;;;10.88;6.05;;;;;;;;;;5058355;28;20204;-76
2023/02/20 05:25:05;;;;;;;12.33;6.80;;;;;;;;;;5058270;28;20190;-76
2023/02/20 05:27:31;;;;;;;11.80;6.28;;;;;;;;;;5058775;28;20544;-76
2023/02/20 05:29:58;;;;;;;13.43;7.35;;;;;;;;;;5056774;28;20176;-75
2023/02/20 05:32:26;;;;;;;12.27;5.95;;;;;;;;;;5058661;28;20259;-75
2023/02/20 05:34:52;;;;;;;9.65;5.80;;;;;;;;;;5058080;28;20217;-76
2023/02/20 05:37:19;;;;;;;12.60;7.45;;;;;;;;;;5057443;28;20176;-75
2023/02/20 05:39:46;;;;;;;15.88;8.25;;;;;;;;;;5056799;28;20612;-78
2023/02/20 05:42:12;;;;;;;13.43;7.55;;;;;;;;;;5058614;28;20177;-74
2023/02/20 05:44:38;;;;;;;13.02;7.07;;;;;;;;;;5058281;28;20268;-75
2023/02/20 05:47:06;;;;;;;9.45;5.85;;;;;;;;;;5058682;28;20629;-74
2023/02/20 05:49:33;;;;;;;12.50;6.50;;;;;;;;;;5058384;28;20193;-78
2023/02/20 05:51:59;;;;;;;10.13;6.22;;;;;;;;;;5056862;28;20181;-75
2023/02/20 05:54:25;;;;;;;17.83;7.55;;;;;;;;;;5058149;28;20207;-77
2023/02/20 05:56:51;;;;;;;10.82;6.18;;;;;;;;;;5058191;28;20177;-77
2023/02/20 05:59:20;;;;;;;13.45;6.47;;;;;;;;;;5058080;28;20262;-77
2023/02/20 06:01:46;;;;;;;19.88;7.43;;;;;;;;;;5057376;28;20180;-78
2023/02/20 06:04:12;;;;;;;11.75;7.05;;;;;;;;;;5058272;28;20173;-77
2023/02/20 06:06:41;;;;;;;10.27;5.97;;;;;;;;;;5057943;28;20177;-77
2023/02/20 06:09:09;;;;;;;15.10;6.88;;;;;;;;;;5058190;28;20538;-78
2023/02/20 06:11:36;;;;;;;12.88;6.47;;;;;;;;;;5057432;28;20207;-79
2023/02/20 06:14:02;;;;;;;11.68;5.90;;;;;;;;;;5057585;28;20268;-78
2023/02/20 06:16:29;;;;;;;14.65;5.68;;;;;;;;;;5057704;28;20220;-77
2023/02/20 06:18:56;;;;;;;8.82;5.38;;;;;;;;;;5057172;28;21095;-77
2023/02/20 06:21:22;;;;;;;10.65;5.55;;;;;;;;;;5057788;28;20260;-78
2023/02/20 06:23:49;;;;;;;12.93;6.07;;;;;;;;;;5056873;28;20645;-78
2023/02/20 06:26:15;;;;;;;12.32;6.70;;;;;;;;;;5057114;28;20186;-78
2023/02/20 06:28:42;;;;;;;9.70;5.35;;;;;;;;;;5057232;28;20587;-78
2023/02/20 06:31:08;;;;;;;9.23;5.78;;;;;;;;;;5057329;28;20207;-78
2023/02/20 06:33:34;;;;;;;9.75;6.25;;;;;;;;;;5056962;28;20192;-77
2023/02/20 06:36:01;;;;;;;7.80;4.90;;;;;;;;;;5056954;28;20748;-78
2023/02/20 06:38:27;;;;;;;10.25;5.53;;;;;;;;;;5055777;28;20187;-78
2023/02/20 06:40:53;;;;;;;6.75;4.80;;;;;;;;;;5056535;28;20181;-78
2023/02/20 06:43:19;;;;;;;8.75;5.57;;;;;;;;;;5057422;28;20184;-77
2023/02/20 06:45:45;;;;;;;11.00;5.35;;;;;;;;;;5056690;28;20189;-78
2023/02/20 06:48:13;;;;;;;13.75;5.30;;;;;;;;;;5057172;28;20173;-78
2023/02/20 06:50:39;;;;;;;9.02;5.20;;;;;;;;;;5056670;28;20172;-77
2023/02/20 06:53:05;;;;;;;9.95;4.75;;;;;;;;;;5056446;28;20276;-77
2023/02/20 06:55:31;;;;;;;5.78;3.90;;;;;;;;;;5056818;28;20247;-78
2023/02/20 06:57:57;;;;;;;10.60;4.72;;;;;;;;;;5056001;28;20654;-78
2023/02/20 07:00:23;;;;;;;8.98;4.30;;;;;;;;;;5056373;28;20573;-78
2023/02/20 07:02:49;;;;;;;9.35;4.55;;;;;;;;;;5056781;28;20195;-77
2023/02/20 07:05:15;;;;;;;12.70;4.60;;;;;;;;;;5057207;28;20666;-77
2023/02/20 07:07:41;;;;;;;21.38;4.32;;;;;;;;;;5056936;28;20188;-78
2023/02/20 07:10:07;;;;;;;10.13;4.43;;;;;;;;;;5056888;28;20580;-78
2023/02/20 07:12:37;;;;;;;8.80;4.97;;;;;;;;;;5056709;28;20799;-77
2023/02/20 07:15:03;;;;;;;9.25;5.07;;;;;;;;;;5056181;28;20224;-77
2023/02/20 07:17:30;;;;;;;14.60;5.13;;;;;;;;;;5055523;28;20188;-77
2023/02/20 07:19:55;;;;;;;19.08;5.28;;;;;;;;;;5055319;28;20176;-77
2023/02/20 07:22:22;;;;;;;15.02;4.80;;;;;;;;;;5056890;28;20319;-77
2023/02/20 07:24:52;;;;;;;16.08;6.03;;;;;;;;;;5056774;28;20198;-77
2023/02/20 07:27:18;;;;;;;16.25;5.90;;;;;;;;;;5056518;28;20228;-77
2023/02/20 07:29:45;;;;;;;13.75;6.88;;;;;;;;;;5055064;28;20178;-77
2023/02/20 07:32:10;;;;;;;9.68;5.70;;;;;;;;;;5056720;28;20174;-77
2023/02/20 07:34:36;;;;;;;11.93;6.57;;;;;;;;;;5056757;28;20270;-77
2023/02/20 07:37:02;;;;;;;11.80;6.30;;;;;;;;;;5056610;28;20436;-77
2023/02/20 07:39:29;;;;;;;12.77;6.03;;;;;;;;;;5056319;28;20840;-77
2023/02/20 07:41:55;;;;;;;9.32;6.25;;;;;;;;;;5056610;28;20459;-77
2023/02/20 07:44:21;;;;;;;18.33;8.43;;;;;;;;;;5057306;28;20646;-77
2023/02/20 07:46:47;;;;;;;12.97;6.80;;;;;;;;;;5056216;28;20182;-77
2023/02/20 07:49:13;;;;;;;11.60;7.53;;;;;;;;;;5056575;28;20400;-76
2023/02/20 07:51:39;;;;;;;17.17;8.93;;;;;;;;;;5056190;28;20173;-77
2023/02/20 07:54:05;;;;;;;23.90;8.40;;;;;;;;;;5056251;28;20660;-77
2023/02/20 07:56:31;;;;;;;15.00;8.43;;;;;;;;;;5056451;28;20509;-77
2023/02/20 07:58:57;;;;;;;19.70;8.93;;;;;;;;;;5056446;28;20171;-77
2023/02/20 08:01:23;;;;;;;15.75;8.23;;;;;;;;;;5056314;28;20220;-77
2023/02/20 08:03:49;;;;;;;12.80;7.90;;;;;;;;;;5056541;28;20173;-77
2023/02/20 08:06:18;;;;;;;13.07;8.98;;;;;;;;;;5056706;28;20182;-77
2023/02/20 08:08:49;;;;;;;14.30;7.03;;;;;;;;;;5056530;28;20174;-77
2023/02/20 08:11:15;;;;;;;12.27;7.93;;;;;;;;;;5055155;28;20175;-77
2023/02/20 08:13:42;;;;;;;11.95;8.35;;;;;;;;;;5055266;28;20229;-77
2023/02/20 08:16:08;;;;;;;12.32;8.15;;;;;;;;;;5056422;28;20205;-76
2023/02/20 08:18:34;;;;;;;11.48;8.77;;;;;;;;;;5055972;28;20669;-84
2023/02/20 08:21:00;;;;;;;18.90;9.13;;;;;;;;;;5052823;28;20185;-85
2023/02/20 08:23:26;;;;;;;13.57;7.80;;;;;;;;;;5054527;28;20409;-85
2023/02/20 08:25:53;;;;;;;14.07;8.60;;;;;;;;;;5054481;28;20404;-84
2023/02/20 08:28:19;;;;;;;10.02;7.03;;;;;;;;;;5054614;28;20198;-82
2023/02/20 08:30:45;;;;;;;8.05;5.45;;;;;;;;;;5054582;28;20177;-82
2023/02/20 08:33:11;;;;;;;16.00;6.88;;;;;;;;;;5054676;28;20528;-82
2023/02/20 08:35:37;;;;;;;10.55;6.85;;;;;;;;;;5036571;28;20210;-81
2023/02/20 08:38:07;;;;;;;13.30;8.63;;;;;;;;;;5053885;28;20181;-81
2023/02/20 08:40:34;;;;;;;17.05;8.43;;;;;;;;;;5053858;28;20764;-82
2023/02/20 08:43:00;;;;;;;10.85;8.20;;;;;;;;;;5052816;28;20196;-81
2023/02/20 08:45:26;;;;;;;14.80;8.15;;;;;;;;;;5053618;28;20190;-81
2023/02/20 08:48:00;;;;;;;14.55;7.78;;;;;;;;;;5054548;28;20188;-82
2023/02/20 08:50:26;;;;;;;13.50;7.40;;;;;;;;;;5056695;28;20223;-83
2023/02/20 08:52:52;;;;;;;13.68;7.97;;;;;;;;;;5058238;28;20173;-81
2023/02/20 08:55:18;;;;;;;14.53;7.73;;;;;;;;;;5057087;28;20691;-81
2023/02/20 08:57:44;;;;;;;25.38;9.77;;;;;;;;;;5057721;28;20400;-82
2023/02/20 09:00:10;;;;;;;8.55;6.97;;;;;;;;;;5058240;28;20205;-81
2023/02/20 09:02:36;;;;;;;14.73;8.23;;;;;;;;;;5040697;28;20716;-81
2023/02/20 09:05:03;;;;;;;9.93;8.07;;;;;;;;;;5057108;28;20202;-82
2023/02/20 09:07:29;;;;;;;10.30;6.47;;;;;;;;;;5058433;28;20399;-81
2023/02/20 09:09:55;;;;;;;14.83;7.00;;;;;;;;;;5058108;28;20191;-82
2023/02/20 09:12:21;;;;;;;16.55;7.60;;;;;;;;;;5058387;28;20413;-82
2023/02/20 09:14:47;;;;;;;14.30;8.02;;;;;;;;;;5039245;28;20252;-83
2023/02/20 09:17:13;;;;;;;14.05;8.10;;;;;;;;;;5057839;28;20171;-81
2023/02/20 09:19:39;;;;;;;15.98;8.40;;;;;;;;;;5057036;28;20167;-81
2023/02/20 09:22:05;;;;;;;15.70;8.73;;;;;;;;;;5057477;28;20666;-82
2023/02/20 09:24:33;;;;;;;10.63;6.85;;;;;;;;;;5057656;28;20180;-82
2023/02/20 09:27:00;;;;;;;12.00;6.57;;;;;;;;;;5056143;28;20537;-82
2023/02/20 09:29:26;;;;;;;14.98;9.00;;;;;;;;;;5057651;28;20168;-82
2023/02/20 09:31:52;;;;;;;14.38;9.25;;;;;;;;;;5057287;28;20178;-82
2023/02/20 09:34:19;;;;;;;13.50;7.90;;;;;;;;;;5057121;28;20186;-82
2023/02/20 09:36:45;;;;;;;12.93;9.40;;;;;;;;;;5055803;28;20178;-82
2023/02/20 09:39:11;;;;;;;13.60;8.48;;;;;;;;;;5055386;28;20521;-82
2023/02/20 09:41:54;;;;;;;13.65;7.53;;;;;;;;;;5057318;28;20174;-81
2023/02/20 09:44:32;;;;;;;9.50;6.05;;;;;;;;;;5055835;28;20648;-81
2023/02/20 09:47:02;;;;;;;10.40;7.22;;;;;;;;;;5057781;28;20162;-81
2023/02/20 09:49:33;;;;;;;10.80;7.07;;;;;;;;;;5057018;28;20184;-81
2023/02/20 09:52:01;;;;;;;17.15;8.25;;;;;;;;;;5056124;28;20181;-80
2023/02/20 09:54:31;;;;;;;13.88;7.53;;;;;;;;;;5056879;28;20187;-80
2023/02/20 09:56:58;;;;;;;10.90;8.65;;;;;;;;;;5055102;28;20184;-80
2023/02/20 09:59:45;;;;;;;11.88;7.43;;;;;;;;;;5036529;28;20204;-80
2023/02/20 10:02:19;;;;;;;8.88;7.00;;;;;;;;;;5035346;28;20180;-80
2023/02/20 10:04:49;;;;;;;12.15;8.07;;;;;;;;;;5038020;28;20177;-81
2023/02/20 10:07:25;;;;;;;16.13;8.30;;;;;;;;;;5035408;28;20174;-80
2023/02/20 10:09:51;;;;;;;13.63;8.82;;;;;;;;;;5036872;28;20212;-80
2023/02/20 10:12:17;;;;;;;8.07;6.32;;;;;;;;;;5036968;28;20208;-80
2023/02/20 10:14:56;;;;;;;17.92;9.23;;;;;;;;;;5035343;28;20242;-78
2023/02/20 10:17:31;;;;;;;13.50;6.47;;;;;;;;;;5036628;28;20182;-79
2023/02/20 10:20:10;;;;;;;14.05;9.10;;;;;;;;;;5037539;28;20172;-78
2023/02/20 10:22:43;;;;;;;11.40;8.43;;;;;;;;;;5037642;28;20228;-78
2023/02/20 10:25:15;;;;;;;10.57;8.00;;;;;;;;;;5036846;28;20178;-78
2023/02/20 10:27:47;;;;;;;10.73;7.70;;;;;;;;;;5035430;28;20182;-78
2023/02/20 10:30:15;;;;;;;12.05;8.70;;;;;;;;;;5036549;28;20253;-79
2023/02/20 10:32:50;;;;;;;14.82;9.73;;;;;;;;;;5035195;28;20182;-78
2023/02/20 10:35:20;;;;;;;12.02;7.88;;;;;;;;;;5036269;28;20206;-80
2023/02/20 10:37:49;;;;;;;11.63;8.88;;;;;;;;;;5037056;28;20182;-78
2023/02/20 10:40:18;;;;;;;11.05;7.63;;;;;;;;;;5034886;28;20224;-79
2023/02/20 10:42:51;;;;;;;15.95;9.75;;;;;;;;;;5036552;28;20187;-79
2023/02/20 10:45:26;;;;;;;17.00;9.77;;;;;;;;;;5035256;28;20201;-79
2023/02/20 10:47:57;;;;;;;10.27;7.95;;;;;;;;;;5036451;28;20230;-85
2023/02/20 10:50:28;;;;;;;12.10;9.18;;;;;;;;;;5036731;28;20166;-79
2023/02/20 10:52:57;;;;;;;15.32;8.98;;;;;;;;;;5036248;28;20178;-80
2023/02/20 10:55:27;;;;;;;13.50;9.40;;;;;;;;;;5036651;28;20240;-79
2023/02/20 10:58:09;;;;;;;16.13;9.43;;;10.40;99.90;;;;;;5035772;28;20173;-79
2023/02/20 11:00:58;;;;;;;11.90;8.40;;;10.40;99.90;;;;;;5036478;28;20660;-79
2023/02/20 11:03:38;;;;;;;15.57;10.20;;;9.80;99.90;;;;;;5035818;28;20162;-79
2023/02/20 11:06:08;;;;;;;15.77;8.52;;;9.70;99.90;;;;;;5035821;28;20159;-79
2023/02/20 11:08:33;;;;;;;13.65;9.82;;;9.50;99.90;;;;;;5035808;28;20644;-79
2023/02/20 11:11:05;;;;;;;20.63;9.77;;;;;;;;;;5035928;28;20201;-79
2023/02/20 11:13:33;;;;;;;16.55;9.88;;;;;;;;;;5036400;28;20225;-79
2023/02/20 11:15:59;;;;;;;14.13;8.40;;;10.50;99.90;;;;;;5035635;28;20677;-79
2023/02/20 11:18:38;;;;;;;12.33;8.90;;;10.60;99.90;;;;;;5036127;28;20191;-79
2023/02/20 11:21:04;;;;;;;15.20;9.10;;;10.90;99.90;;;;;;5035977;28;20178;-78
2023/02/20 11:23:34;;;;;;;11.95;9.18;;;11.50;99.90;;;;;;5035493;28;20541;-79
2023/02/20 11:26:28;;;;;;;12.68;8.82;;;12.10;99.90;;;;;;5035992;28;20178;-79
2023/02/20 11:29:05;;;;;;;10.82;8.43;;;12.40;99.90;;;;;;5035398;28;20166;-81
2023/02/20 11:31:31;;;;;;;12.45;8.82;;;12.30;99.90;;;;;;5035326;28;20260;-79
2023/02/20 11:33:57;;;;;;;13.70;9.37;;;12.30;99.90;;;;;;5033830;28;20645;-79
2023/02/20 11:36:36;;;;;;;10.53;8.20;;;12.40;99.90;;;;;;5035567;28;20460;-78
2023/02/20 11:39:18;;;;;;;14.57;9.85;;;12.10;99.90;;;;;;5035877;28;20166;-79
2023/02/20 11:41:43;;;;;;;16.02;10.07;;;12.00;99.90;;;;;;5035154;28;20240;-78
2023/02/20 11:44:09;;;;;;;13.17;9.17;;;11.90;99.90;;;;;;5035170;28;20194;-79
2023/02/20 11:46:35;;;;;;;17.10;8.67;;;11.90;99.90;;;;;;5035415;28;20178;-79
2023/02/20 11:49:06;;;;;;;13.47;7.83;;;11.50;99.90;;;;;;5034960;28;20626;-79
2023/02/20 11:51:36;;;;;;;15.43;10.10;;;11.30;99.90;;;;;;5036093;28;20405;-78
2023/02/20 11:54:16;;;;;;;15.90;10.05;;;11.20;99.90;;;;;;5035239;28;20198;-79
2023/02/20 11:57:01;;;;;;;13.10;8.20;;;11.20;99.90;;;;;;5035239;28;20221;-78
2023/02/20 11:59:32;;;;;;;13.25;9.45;;;11.00;99.90;;;;;;5035295;28;20181;-78
2023/02/20 12:02:16;;;;;;;17.80;10.10;;;11.00;99.90;;;;;;5035295;28;20162;-79
2023/02/20 12:05:13;;;;;;;15.40;10.20;;;11.00;99.90;;;;;;5037301;28;20178;-78
2023/02/20 12:07:51;;;;;;;15.75;10.07;;;11.20;99.90;;;;;;5035623;28;20417;-78
2023/02/20 12:10:30;;;;;;;12.02;8.93;;;11.30;99.90;;;;;;5034690;28;20201;-78
2023/02/20 12:12:55;;;;;;;16.25;10.40;;;11.20;99.90;;;;;;5033470;28;20253;-78
2023/02/20 12:15:24;;;;;;;16.37;10.90;;;11.30;99.90;;;;;;5034583;28;20284;-79
2023/02/20 12:18:07;;;;;;;19.60;10.15;;;11.30;99.90;;;;;;5035273;28;20455;-78
2023/02/20 12:20:36;;;;;;;20.27;10.85;;;11.10;99.90;;;;;;5034704;28;20163;-79
2023/02/20 12:23:13;;;;;;;15.00;8.75;;;11.20;99.90;;;;;;5034517;28;20174;-78
2023/02/20 12:26:12;;;;;;;15.20;9.93;;;11.30;99.90;;;;;;5038314;28;20249;-78
2023/02/20 12:28:52;;;;;;;14.18;9.88;;;11.50;99.90;;;;;;5038635;28;20189;-78
2023/02/20 12:31:36;;;;;;;20.13;10.60;;;11.70;99.90;;;;;;5038724;28;20183;-78
2023/02/20 12:34:01;;;;;;;16.90;10.48;;;11.70;99.90;;;;;;5038155;28;20270;-78
2023/02/20 12:36:46;;;;;;;13.70;10.93;;;11.70;99.90;;;;;;5038861;28;20292;-79
2023/02/20 12:39:34;;;;;;;15.65;10.35;;;11.50;99.90;;;;;;5038090;28;20573;-78
2023/02/20 12:42:25;;;;;;;16.98;10.43;;;11.20;99.90;;;;;;5038148;28;20225;-78
2023/02/20 12:45:28;;;;;;;16.63;10.60;;;10.90;99.90;;;;;;5039353;28;20182;-78
2023/02/20 12:48:07;;;;;;;18.17;11.02;;;10.70;99.90;;;;;;5038641;28;20182;-78
2023/02/20 12:50:41;;;;;;;18.77;10.73;;;10.60;99.90;;;;;;5038695;28;20178;-78
2023/02/20 12:53:16;;;;;;;15.32;10.32;;;10.50;99.90;;;;;;5037383;28;20178;-78
2023/02/20 12:56:04;;;;;;;15.00;9.90;;;10.60;99.90;;;;;;5038090;28;20209;-78
2023/02/20 12:58:37;;;;;;;15.98;10.88;;;10.70;99.90;;;;;;5038435;28;20182;-78
2023/02/20 13:01:09;;;;;;;16.92;10.00;;;10.80;99.90;;;;;;5038089;28;20174;-79
2023/02/20 13:03:57;;;;;;;17.23;10.13;;;10.70;99.90;;;;;;5038556;28;20222;-78
2023/02/20 13:06:31;;;;;;;17.15;11.15;;;10.80;99.90;;;;;;5037923;28;20244;-78
2023/02/20 13:09:03;;;;;;;13.95;9.63;;;10.80;99.90;;;;;;5038406;28;20180;-78
2023/02/20 13:11:39;;;;;;;14.02;10.07;;;10.70;99.90;;;;;;5038406;28;20243;-78
2023/02/20 13:14:13;;;;;;;20.63;11.90;;;10.70;99.90;;;;;;5036140;28;20233;-78
2023/02/20 13:17:21;;;;;;;15.10;10.45;;;10.60;99.90;;;;;;5037985;28;20549;-78
2023/02/20 13:19:59;;;;;;;14.15;9.52;;;10.40;99.90;;;;;;5038209;28;20335;-78
2023/02/20 13:22:25;;;;;;;18.00;9.93;;;10.30;99.90;;;;;;5037992;28;20189;-78
2023/02/20 13:24:50;;;;;;;16.83;10.17;;;10.40;99.90;;;;;;5038103;28;20209;-78
2023/02/20 13:27:30;;;;;;;18.93;11.77;;;10.40;99.90;;;;;;5036687;28;20174;-78
2023/02/20 13:30:18;;;;;;;18.05;11.25;;;10.50;99.90;;;;;;5036431;28;20257;-78
2023/02/20 13:32:44;;;;;;;14.45;10.63;;;10.50;99.90;;;;;;5037212;28;20198;-78
2023/02/20 13:35:39;;;;;;;15.90;10.02;;;10.40;99.90;;;;;;5036489;28;20214;-78
2023/02/20 13:38:14;;;;;;;20.48;11.40;;;10.30;99.90;;;;;;5037480;28;20642;-78
2023/02/20 13:40:44;;;;;;;20.48;12.55;;;10.30;99.90;;;;;;5037663;28;20552;-78
2023/02/20 13:43:22;;;;;;;22.05;11.70;;;10.30;99.90;;;;;;5037497;28;20185;-77
2023/02/20 13:46:13;;;;;;;20.42;9.38;;;10.20;99.90;;;;;;5037642;28;20556;-78
2023/02/20 13:48:41;;;;;;;16.10;11.70;;;10.00;99.90;;;;;;5037293;28;20163;-78
2023/02/20 13:51:20;;;;;;;19.92;11.15;;;10.10;99.90;;;;;;5037518;28;20178;-78
2023/02/20 13:53:52;;;;;;;19.17;11.60;;;10.10;99.90;;;;;;5037535;28;20228;-78
2023/02/20 13:56:21;;;;;;;19.15;10.95;;;10.10;99.90;;;;;;5037532;28;20293;-78
2023/02/20 13:58:48;;;;;;;20.52;11.80;;;10.00;99.90;;;;;;5037785;28;20273;-78
2023/02/20 14:01:14;;;;;;;21.52;10.90;;;10.00;99.90;;;;;;5036899;28;20190;-78
2023/02/20 14:03:40;;;;;;;20.27;9.63;;;9.90;99.90;;;;;;5036566;28;20300;-77
2023/02/20 14:06:14;;;;;;;17.53;11.00;;;9.90;99.90;;;;;;5037712;28;20421;-79
2023/02/20 14:08:45;;;;;;;17.00;10.90;;;9.90;99.90;;;;;;5036913;28;20500;-78
2023/02/20 14:11:23;;;;;;;18.08;11.80;;;9.90;99.90;;;;;;5036800;28;20174;-78
2023/02/20 14:13:49;;;;;;;18.17;11.10;;;10.00;99.90;;;;;;5036863;28;20229;-78
2023/02/20 14:16:32;;;;;;;15.90;10.18;;;10.00;99.90;;;;;;5036404;28;20280;-78
2023/02/20 14:19:00;;;;;;;18.30;10.60;;;10.00;99.90;;;;;;5036794;28;20208;-78
2023/02/20 14:21:28;;;;;;;16.05;9.93;;;10.00;99.90;;;;;;5036685;28;20181;-78
2023/02/20 14:23:54;;;;;;;13.25;9.05;;;10.00;99.90;;;;;;5036035;28;20178;-78
2023/02/20 14:26:30;;;;;;;15.57;10.50;;;10.00;99.90;;;;;;5036127;28;20634;-78
2023/02/20 14:28:57;;;;;;;7.05;5.47;;;10.00;99.90;;;;;;5036531;28;20178;-78